Time;durP1;ratioP1;P1;durP2;ratioP2;P2;SDS_P1;SDS_P2;PMS_P1;PMS_P2;Temp;Humidity;BMP_temperature;BMP_pressure;BME280_temperature;BME280_humidity;BME280_pressure;Samples;Min_cycle;Max_cycle;Signal;HPM_P1;HPM_P2
2021/07/01 00:01:01;;;;;;;15.27;8.67;;;15.60;99.90;;;;;;5062355;28;20225;-71
2021/07/01 00:03:28;;;;;;;14.67;8.10;;;15.60;99.90;;;;;;5064080;28;20718;-71
2021/07/01 00:05:56;;;;;;;14.57;7.40;;;15.50;99.90;;;;;;5054538;28;20207;-71
2021/07/01 00:08:25;;;;;;;15.57;8.43;;;15.50;99.90;;;;;;5057515;28;20205;-71
2021/07/01 00:10:52;;;;;;;14.57;8.03;;;15.50;99.90;;;;;;5058652;28;20218;-71
2021/07/01 00:13:19;;;;;;;13.83;7.73;;;15.40;99.90;;;;;;5056575;28;20222;-71
2021/07/01 00:15:46;;;;;;;11.47;7.20;;;15.40;99.90;;;;;;5058603;28;20199;-71
2021/07/01 00:18:15;;;;;;;12.33;6.17;;;15.40;99.90;;;;;;5065229;28;20207;-71
2021/07/01 00:20:42;;;;;;;16.17;6.73;;;15.30;99.90;;;;;;5052115;28;20213;-71
2021/07/01 00:23:09;;;;;;;13.10;5.70;;;15.30;99.90;;;;;;5068863;28;20210;-71
2021/07/01 00:25:36;;;;;;;8.50;5.57;;;15.20;99.90;;;;;;5061400;28;20210;-71
2021/07/01 00:28:03;;;;;;;12.17;5.80;;;15.20;99.90;;;;;;5061875;28;20208;-71
2021/07/01 00:30:30;;;;;;;7.77;5.03;;;15.20;99.90;;;;;;5058446;28;20218;-71
2021/07/01 00:32:57;;;;;;;8.67;5.57;;;15.20;99.90;;;;;;5058177;28;20222;-71
2021/07/01 00:35:25;;;;;;;7.53;5.03;;;15.10;99.90;;;;;;5055640;28;20206;-72
2021/07/01 00:37:52;;;;;;;10.40;6.00;;;15.00;99.90;;;;;;5057495;28;20221;-71
2021/07/01 00:40:19;;;;;;;10.57;5.53;;;15.00;99.90;;;;;;5055837;28;20557;-71
2021/07/01 00:42:46;;;;;;;11.60;6.40;;;15.00;99.90;;;;;;5055371;28;20226;-71
2021/07/01 00:45:13;;;;;;;12.37;6.40;;;15.00;99.90;;;;;;5057879;28;20211;-71
2021/07/01 00:47:40;;;;;;;11.10;6.83;;;15.00;99.90;;;;;;5057764;28;20214;-71
2021/07/01 00:50:09;;;;;;;10.40;6.00;;;14.90;99.90;;;;;;5050241;28;20210;-71
2021/07/01 00:52:38;;;;;;;10.80;6.00;;;14.90;99.90;;;;;;5051639;28;20579;-71
2021/07/01 00:55:07;;;;;;;12.93;6.73;;;14.90;99.90;;;;;;5067328;28;20227;-71
2021/07/01 00:57:35;;;;;;;11.40;5.80;;;15.00;99.90;;;;;;5065799;28;20202;-71
2021/07/01 01:00:02;;;;;;;12.20;6.80;;;15.00;99.90;;;;;;5058684;28;20218;-70
2021/07/01 01:02:29;;;;;;;11.23;5.43;;;14.90;99.90;;;;;;5061095;28;20210;-70
2021/07/01 01:04:56;;;;;;;8.63;5.90;;;14.90;99.90;;;;;;5066959;28;20199;-71
2021/07/01 01:07:23;;;;;;;9.20;5.77;;;14.90;99.90;;;;;;5065731;28;20198;-71
2021/07/01 01:09:51;;;;;;;13.87;6.00;;;14.80;99.90;;;;;;5067191;28;20200;-71
2021/07/01 01:12:18;;;;;;;10.10;5.33;;;14.70;99.90;;;;;;5062277;28;20212;-70
2021/07/01 01:14:44;;;;;;;10.87;5.77;;;14.70;99.90;;;;;;5065708;28;20218;-71
2021/07/01 01:17:12;;;;;;;9.43;5.80;;;14.70;99.90;;;;;;5054789;28;20290;-71
2021/07/01 01:19:39;;;;;;;9.03;5.80;;;14.80;99.90;;;;;;5061955;28;20213;-71
2021/07/01 01:22:07;;;;;;;7.80;5.33;;;14.70;99.90;;;;;;5061909;28;20208;-71
2021/07/01 01:24:35;;;;;;;10.73;6.10;;;14.70;99.90;;;;;;5060424;28;20289;-71
2021/07/01 01:27:02;;;;;;;8.87;5.57;;;14.70;99.90;;;;;;5058155;28;20211;-71
2021/07/01 01:29:29;;;;;;;8.33;5.70;;;14.70;99.90;;;;;;5065557;28;20203;-71
2021/07/01 01:31:56;;;;;;;7.70;5.40;;;14.70;99.90;;;;;;5066465;28;20203;-70
2021/07/01 01:34:22;;;;;;;8.70;5.30;;;14.70;99.90;;;;;;5068468;28;20605;-71
2021/07/01 01:36:49;;;;;;;8.53;5.77;;;14.70;99.90;;;;;;5066785;28;20210;-71
2021/07/01 01:39:21;;;;;;;8.87;5.40;;;14.70;99.90;;;;;;5062092;28;20209;-71
2021/07/01 01:41:49;;;;;;;11.80;6.03;;;14.70;99.90;;;;;;5063739;28;20213;-76
2021/07/01 01:44:16;;;;;;;9.80;5.50;;;14.70;99.90;;;;;;5066579;28;20636;-71
2021/07/01 01:46:42;;;;;;;8.50;5.67;;;14.60;99.90;;;;;;5061057;28;20211;-71
2021/07/01 01:49:10;;;;;;;8.70;6.00;;;14.60;99.90;;;;;;5069296;28;20202;-71
2021/07/01 01:51:37;;;;;;;8.30;6.03;;;14.50;99.90;;;;;;5057550;28;20290;-71
2021/07/01 01:54:06;;;;;;;7.43;5.87;;;14.50;99.90;;;;;;5060005;28;20214;-70
2021/07/01 01:56:37;;;;;;;9.83;6.10;;;14.50;99.90;;;;;;5059677;28;20213;-70
2021/07/01 01:59:05;;;;;;;9.03;5.30;;;14.50;99.90;;;;;;5068062;28;20283;-71
2021/07/01 02:01:32;;;;;;;9.73;5.97;;;14.60;99.90;;;;;;5058459;28;20283;-71
2021/07/01 02:04:00;;;;;;;8.10;5.53;;;14.60;99.90;;;;;;5051375;28;20648;-71
2021/07/01 02:06:28;;;;;;;8.73;5.80;;;14.60;99.90;;;;;;5065341;28;20210;-71
2021/07/01 02:08:55;;;;;;;8.73;5.80;;;14.60;99.90;;;;;;5064766;28;20202;-71
2021/07/01 02:11:22;;;;;;;9.53;5.77;;;14.60;99.90;;;;;;5062764;28;20567;-71
2021/07/01 02:13:50;;;;;;;9.23;5.63;;;14.60;99.90;;;;;;5056616;28;20221;-71
2021/07/01 02:16:17;;;;;;;11.43;6.00;;;14.50;99.90;;;;;;5057199;28;20617;-71
2021/07/01 02:18:45;;;;;;;12.53;6.03;;;14.60;99.90;;;;;;5057360;28;20238;-71
2021/07/01 02:21:12;;;;;;;7.57;6.00;;;14.40;99.90;;;;;;5057141;28;20286;-71
2021/07/01 02:23:39;;;;;;;11.00;6.90;;;14.50;99.90;;;;;;5059869;28;20200;-71
2021/07/01 02:26:06;;;;;;;11.20;6.70;;;14.40;99.90;;;;;;5054868;28;20205;-70
2021/07/01 02:28:33;;;;;;;10.70;6.43;;;14.40;99.90;;;;;;5057183;28;20206;-70
2021/07/01 02:31:01;;;;;;;10.17;6.70;;;14.30;99.90;;;;;;5055271;28;20205;-71
2021/07/01 02:33:28;;;;;;;11.33;7.50;;;14.30;99.90;;;;;;5055466;28;20699;-71
2021/07/01 02:35:55;;;;;;;12.53;7.67;;;14.20;99.90;;;;;;5059511;28;20199;-71
2021/07/01 02:38:22;;;;;;;10.43;7.03;;;14.30;99.90;;;;;;5063307;28;20659;-71
2021/07/01 02:40:49;;;;;;;9.70;6.90;;;14.30;99.90;;;;;;5062597;28;20195;-71
2021/07/01 02:43:15;;;;;;;10.27;7.07;;;14.30;99.90;;;;;;5051306;28;20293;-71
2021/07/01 02:45:42;;;;;;;11.17;7.47;;;14.30;99.90;;;;;;5052303;28;20704;-71
2021/07/01 02:48:10;;;;;;;11.80;6.90;;;14.30;99.90;;;;;;5064109;28;20293;-71
2021/07/01 02:50:37;;;;;;;11.60;7.13;;;14.30;99.90;;;;;;5052467;28;20296;-71
2021/07/01 02:53:04;;;;;;;12.97;7.43;;;14.30;99.90;;;;;;5063164;28;20409;-71
2021/07/01 02:55:31;;;;;;;11.33;7.13;;;14.20;99.90;;;;;;5066209;28;20230;-71
2021/07/01 02:57:58;;;;;;;12.53;7.47;;;14.30;99.90;;;;;;5051199;28;20563;-71
2021/07/01 03:00:25;;;;;;;11.80;7.60;;;14.30;99.90;;;;;;5052998;28;20202;-71
2021/07/01 03:02:51;;;;;;;11.47;7.50;;;14.40;99.90;;;;;;5053911;28;20199;-71
2021/07/01 03:05:20;;;;;;;9.97;7.33;;;14.30;99.90;;;;;;5066980;28;20210;-71
2021/07/01 03:07:46;;;;;;;11.97;7.80;;;14.30;99.90;;;;;;5051636;28;20294;-71
2021/07/01 03:10:13;;;;;;;8.83;7.00;;;14.20;99.90;;;;;;5058164;28;20203;-71
2021/07/01 03:12:40;;;;;;;13.07;7.53;;;14.20;99.90;;;;;;5053419;28;20203;-71
2021/07/01 03:15:07;;;;;;;11.83;7.03;;;14.20;99.90;;;;;;5057341;28;20231;-71
2021/07/01 03:17:34;;;;;;;10.40;7.80;;;14.00;99.90;;;;;;5057943;28;20211;-71
2021/07/01 03:20:01;;;;;;;13.27;7.47;;;14.00;99.90;;;;;;5062455;28;20393;-71
2021/07/01 03:22:29;;;;;;;11.03;7.53;;;14.00;99.90;;;;;;5052781;28;20283;-71
2021/07/01 03:24:56;;;;;;;9.97;7.97;;;13.90;99.90;;;;;;5052713;28;20199;-71
2021/07/01 03:27:23;;;;;;;12.43;8.70;;;13.90;99.90;;;;;;5067149;28;20293;-71
2021/07/01 03:29:50;;;;;;;11.67;8.00;;;14.00;99.90;;;;;;5056295;28;20656;-71
2021/07/01 03:32:17;;;;;;;10.93;7.70;;;13.90;99.90;;;;;;5060192;28;20210;-71
2021/07/01 03:34:44;;;;;;;12.47;8.50;;;13.90;99.90;;;;;;5055114;28;20218;-71
2021/07/01 03:37:11;;;;;;;13.50;8.50;;;13.90;99.90;;;;;;5062461;28;20602;-72
2021/07/01 03:39:39;;;;;;;11.73;8.13;;;13.90;99.90;;;;;;5053564;28;20708;-71
2021/07/01 03:42:07;;;;;;;13.03;8.90;;;13.90;99.90;;;;;;5054539;28;20734;-71
2021/07/01 03:44:36;;;;;;;13.97;8.50;;;14.00;99.90;;;;;;5054664;28;20198;-71
2021/07/01 03:47:03;;;;;;;13.07;8.33;;;13.90;99.90;;;;;;5054044;28;20198;-71
2021/07/01 03:49:30;;;;;;;13.83;8.73;;;13.80;99.90;;;;;;5054140;28;20198;-71
2021/07/01 03:51:56;;;;;;;12.37;9.23;;;13.80;99.90;;;;;;5055524;28;20206;-71
2021/07/01 03:54:23;;;;;;;13.50;9.30;;;13.80;99.90;;;;;;5084644;23;20234;-73
2021/07/01 03:56:51;;;;;;;14.10;8.90;;;13.90;99.90;;;;;;5065455;28;20199;-73
2021/07/01 03:59:18;;;;;;;14.60;9.03;;;13.70;99.90;;;;;;5072707;28;20569;-73
2021/07/01 04:01:45;;;;;;;13.73;8.83;;;14.00;99.90;;;;;;5067142;28;20201;-73
2021/07/01 04:04:12;;;;;;;12.90;8.43;;;13.80;99.90;;;;;;5071295;28;20202;-73
2021/07/01 04:06:39;;;;;;;12.77;8.90;;;13.80;99.90;;;;;;5072890;28;20198;-72
2021/07/01 04:09:06;;;;;;;14.70;8.60;;;13.90;99.90;;;;;;5069995;28;20636;-73
2021/07/01 04:11:34;;;;;;;14.73;8.20;;;13.70;99.90;;;;;;5067842;28;20202;-73
2021/07/01 04:14:03;;;;;;;12.27;8.17;;;13.80;99.90;;;;;;5071186;28;20228;-73
2021/07/01 04:16:31;;;;;;;13.90;9.00;;;13.70;99.90;;;;;;5065984;28;20664;-72
2021/07/01 04:18:58;;;;;;;13.33;9.13;;;13.90;99.90;;;;;;5073055;28;20202;-73
2021/07/01 04:21:27;;;;;;;16.33;8.87;;;13.70;99.90;;;;;;5080341;28;20203;-73
2021/07/01 04:23:55;;;;;;;15.43;9.67;;;13.80;99.90;;;;;;5072148;28;20205;-73
2021/07/01 04:26:22;;;;;;;14.43;8.97;;;13.80;99.90;;;;;;5072036;28;20208;-73
2021/07/01 04:28:50;;;;;;;13.27;9.10;;;13.80;99.90;;;;;;5072193;28;20198;-73
2021/07/01 04:31:18;;;;;;;12.10;8.10;;;13.90;99.90;;;;;;5067914;28;20217;-72
2021/07/01 04:33:45;;;;;;;14.77;9.00;;;13.70;99.90;;;;;;5069152;28;20206;-73
2021/07/01 04:36:12;;;;;;;13.90;9.90;;;13.80;99.90;;;;;;5078490;28;20254;-73
2021/07/01 04:38:39;;;;;;;14.23;9.90;;;13.90;99.90;;;;;;5077318;28;20198;-73
2021/07/01 04:41:06;;;;;;;12.67;8.63;;;13.90;99.90;;;;;;5071084;28;20252;-73
2021/07/01 04:43:33;;;;;;;18.70;11.40;;;13.90;99.90;;;;;;5077456;28;20582;-73
2021/07/01 04:46:00;;;;;;;12.67;8.80;;;14.00;99.90;;;;;;5068761;28;20206;-73
2021/07/01 04:48:28;;;;;;;12.80;8.37;;;13.80;99.90;;;;;;5075368;28;20662;-73
2021/07/01 04:50:55;;;;;;;10.57;7.97;;;13.90;99.90;;;;;;5071732;28;20194;-73
2021/07/01 04:53:21;;;;;;;12.23;7.97;;;13.90;99.90;;;;;;5071443;28;20202;-72
2021/07/01 04:55:48;;;;;;;12.73;8.20;;;13.80;99.90;;;;;;5071631;28;20233;-73
2021/07/01 04:58:15;;;;;;;12.33;7.53;;;13.90;99.90;;;;;;5071355;28;20212;-73
2021/07/01 05:00:42;;;;;;;12.60;8.30;;;13.90;99.90;;;;;;5068331;28;20206;-73
2021/07/01 05:03:09;;;;;;;12.77;8.33;;;13.90;99.90;;;;;;5069059;28;20301;-74
2021/07/01 05:05:37;;;;;;;11.20;7.67;;;13.90;99.90;;;;;;5068820;28;20202;-74
2021/07/01 05:08:04;;;;;;;10.50;7.73;;;14.00;99.90;;;;;;5070193;28;20220;-74
2021/07/01 05:10:31;;;;;;;10.87;7.37;;;14.00;99.90;;;;;;5065718;28;20202;-74
2021/07/01 05:12:58;;;;;;;11.20;7.77;;;13.80;99.90;;;;;;5064424;28;20574;-73
2021/07/01 05:15:25;;;;;;;9.83;7.50;;;13.90;99.90;;;;;;5058104;28;20673;-74
2021/07/01 05:17:52;;;;;;;9.20;6.70;;;13.90;99.90;;;;;;5066162;28;20210;-73
2021/07/01 05:20:19;;;;;;;11.00;7.20;;;13.80;99.90;;;;;;5069013;28;20202;-74
2021/07/01 05:22:47;;;;;;;10.60;7.20;;;13.80;99.90;;;;;;5070456;28;20202;-74
2021/07/01 05:25:15;;;;;;;12.37;7.50;;;13.90;99.90;;;;;;5068742;28;20202;-74
2021/07/01 05:27:42;;;;;;;9.07;6.77;;;13.90;99.90;;;;;;5067527;28;20213;-74
2021/07/01 05:30:09;;;;;;;8.90;6.70;;;13.80;99.90;;;;;;5068009;28;20211;-75
2021/07/01 05:32:36;;;;;;;10.27;6.90;;;13.90;99.90;;;;;;5068994;28;20578;-74
2021/07/01 05:35:03;;;;;;;8.10;6.20;;;13.80;99.90;;;;;;5067982;28;20226;-74
2021/07/01 05:37:30;;;;;;;8.13;6.80;;;13.80;99.90;;;;;;5068647;28;20655;-74
2021/07/01 05:39:58;;;;;;;12.13;7.27;;;13.80;99.90;;;;;;5067260;28;20198;-74
2021/07/01 05:42:25;;;;;;;9.70;6.53;;;13.70;99.90;;;;;;5067019;28;20206;-74
2021/07/01 05:44:52;;;;;;;8.57;6.73;;;13.70;99.90;;;;;;5067968;28;20198;-74
2021/07/01 05:47:19;;;;;;;9.13;6.20;;;13.70;99.90;;;;;;5064165;28;20198;-73
2021/07/01 05:49:46;;;;;;;9.47;6.33;;;13.80;99.90;;;;;;5067884;28;20659;-73
2021/07/01 05:52:17;;;;;;;8.93;6.80;;;13.80;99.90;;;;;;5068119;28;20206;-73
2021/07/01 05:54:53;;;;;;;8.90;5.90;;;13.80;99.90;;;;;;5067506;28;20687;-74
2021/07/01 05:57:21;;;;;;;7.40;5.97;;;13.80;99.90;;;;;;5068518;28;20205;-74
2021/07/01 05:59:48;;;;;;;9.23;5.80;;;13.80;99.90;;;;;;5066167;28;20216;-74
2021/07/01 06:02:14;;;;;;;7.67;6.00;;;13.70;99.90;;;;;;5067816;28;20206;-73
2021/07/01 06:04:41;;;;;;;9.17;6.20;;;13.90;99.90;;;;;;5065033;28;20679;-73
2021/07/01 06:07:10;;;;;;;11.03;5.50;;;13.70;99.90;;;;;;5067540;28;20198;-73
2021/07/01 06:09:39;;;;;;;10.07;6.43;;;13.70;99.90;;;;;;5067009;28;20206;-74
2021/07/01 06:12:06;;;;;;;8.10;5.97;;;13.80;99.90;;;;;;5064299;28;20693;-73
2021/07/01 06:14:34;;;;;;;8.47;6.33;;;13.80;99.90;;;;;;5066169;28;20577;-74
2021/07/01 06:17:03;;;;;;;8.97;6.63;;;13.80;99.90;;;;;;5067133;28;20707;-74
2021/07/01 06:19:30;;;;;;;10.87;7.30;;;13.80;99.90;;;;;;5068674;28;20237;-73
2021/07/01 06:21:57;;;;;;;8.03;6.00;;;13.80;99.90;;;;;;5072651;28;20202;-74
2021/07/01 06:24:24;;;;;;;9.77;6.30;;;13.70;99.90;;;;;;5066894;28;20213;-74
2021/07/01 06:26:51;;;;;;;8.67;6.80;;;13.70;99.90;;;;;;5072085;28;20194;-74
2021/07/01 06:29:18;;;;;;;9.83;6.33;;;13.70;99.90;;;;;;5068988;28;20581;-74
2021/07/01 06:31:47;;;;;;;10.93;6.67;;;13.60;99.90;;;;;;5067040;28;20209;-73
2021/07/01 06:34:16;;;;;;;11.73;6.90;;;13.70;99.90;;;;;;5068952;28;20639;-73
2021/07/01 06:36:45;;;;;;;9.93;7.07;;;13.80;99.90;;;;;;5066449;28;20246;-73
2021/07/01 06:39:13;;;;;;;8.67;6.53;;;13.80;99.90;;;;;;5068720;28;20214;-69
2021/07/01 06:41:45;;;;;;;10.37;6.47;;;13.80;99.90;;;;;;5065169;28;20248;-73
2021/07/01 06:44:15;;;;;;;9.20;6.80;;;13.80;99.90;;;;;;5068665;28;20202;-74
2021/07/01 06:46:42;;;;;;;11.70;7.07;;;13.90;99.90;;;;;;5063420;28;20213;-74
2021/07/01 06:49:12;;;;;;;9.93;6.67;;;13.90;99.90;;;;;;5053593;28;20211;-73
2021/07/01 06:51:40;;;;;;;11.07;6.33;;;13.90;99.90;;;;;;5062857;28;20214;-73
2021/07/01 06:54:12;;;;;;;11.90;6.77;;;14.00;99.90;;;;;;5061379;28;20559;-73
2021/07/01 06:56:40;;;;;;;9.87;5.97;;;14.10;99.90;;;;;;5061741;28;20220;-73
2021/07/01 06:59:08;;;;;;;7.10;5.73;;;14.10;99.90;;;;;;5069399;28;20213;-74
2021/07/01 07:01:35;;;;;;;7.10;5.37;;;14.00;99.90;;;;;;5067206;28;20571;-72
2021/07/01 07:04:02;;;;;;;7.07;5.27;;;14.00;99.90;;;;;;5072614;28;20620;-72
2021/07/01 07:06:30;;;;;;;6.57;5.13;;;14.10;99.90;;;;;;5067412;28;20194;-72
2021/07/01 07:08:58;;;;;;;6.60;4.90;;;14.20;99.90;;;;;;5058121;28;20206;-72
2021/07/01 07:11:24;;;;;;;9.00;5.93;;;14.10;99.90;;;;;;5068340;28;20198;-73
2021/07/01 07:13:52;;;;;;;10.57;5.67;;;14.10;99.90;;;;;;5069401;28;20206;-73
2021/07/01 07:16:19;;;;;;;8.67;5.53;;;14.20;99.90;;;;;;5066477;28;20215;-72
2021/07/01 07:18:49;;;;;;;8.27;5.70;;;14.20;99.90;;;;;;5056696;28;20222;-73
2021/07/01 07:21:17;;;;;;;8.57;6.10;;;14.30;99.90;;;;;;5073597;28;20210;-73
2021/07/01 07:23:48;;;;;;;9.43;5.40;;;14.40;99.90;;;;;;5067218;28;20207;-73
2021/07/01 07:26:17;;;;;;;9.03;5.77;;;14.40;99.90;;;;;;5058808;28;20206;-73
2021/07/01 07:28:49;;;;;;;7.80;5.40;;;14.50;99.90;;;;;;5071063;28;20214;-73
2021/07/01 07:31:24;;;;;;;12.70;5.83;;;14.50;99.90;;;;;;5066104;28;20203;-73
2021/07/01 07:33:54;;;;;;;8.37;5.17;;;14.50;99.90;;;;;;5072257;28;20236;-74
2021/07/01 07:36:22;;;;;;;5.43;4.50;;;14.50;99.90;;;;;;5069178;28;20230;-73
2021/07/01 07:38:52;;;;;;;8.63;5.33;;;14.50;99.90;;;;;;5072018;28;20206;-73
2021/07/01 07:41:19;;;;;;;6.80;4.83;;;14.50;99.90;;;;;;5071045;28;20209;-73
2021/07/01 07:43:47;;;;;;;5.87;4.53;;;14.50;99.90;;;;;;5071885;28;20213;-73
2021/07/01 07:46:15;;;;;;;8.57;4.90;;;14.60;99.90;;;;;;5071566;28;20202;-72
2021/07/01 07:48:41;;;;;;;6.70;4.60;;;14.40;99.90;;;;;;5071696;28;20233;-73
2021/07/01 07:51:11;;;;;;;6.17;4.57;;;14.60;99.90;;;;;;5058453;28;20350;-73
2021/07/01 07:53:40;;;;;;;5.00;4.60;;;14.70;99.90;;;;;;5067950;28;20668;-72
2021/07/01 07:56:11;;;;;;;5.50;4.10;;;14.70;99.90;;;;;;5064634;28;20249;-73
2021/07/01 07:58:44;;;;;;;5.50;4.40;;;14.60;99.90;;;;;;5066987;28;20226;-73
2021/07/01 08:01:11;;;;;;;4.80;4.30;;;14.60;99.90;;;;;;5065451;28;20210;-73
2021/07/01 08:03:39;;;;;;;6.37;4.40;;;14.60;99.90;;;;;;5068139;28;20217;-73
2021/07/01 08:06:08;;;;;;;6.03;4.10;;;14.60;99.90;;;;;;5065374;28;20221;-73
2021/07/01 08:08:38;;;;;;;5.17;4.00;;;14.50;99.90;;;;;;5065894;28;20206;-73
2021/07/01 08:11:09;;;;;;;5.00;4.07;;;14.70;99.90;;;;;;5068751;28;20199;-73
2021/07/01 08:13:37;;;;;;;5.73;4.27;;;14.70;99.90;;;;;;5061490;28;20236;-73
2021/07/01 08:16:05;;;;;;;4.57;4.03;;;14.60;99.90;;;;;;5060599;28;20719;-73
2021/07/01 08:18:37;;;;;;;5.27;4.40;;;14.50;99.90;;;;;;5064885;28;20213;-73
2021/07/01 08:21:04;;;;;;;5.80;4.80;;;14.50;99.90;;;;;;5063119;28;20298;-73
2021/07/01 08:23:32;;;;;;;7.53;5.57;;;14.60;99.90;;;;;;5059495;28;20199;-73
2021/07/01 08:26:01;;;;;;;6.77;4.70;;;14.60;99.90;;;;;;5060346;28;20205;-73
2021/07/01 08:28:30;;;;;;;6.77;4.93;;;14.70;99.90;;;;;;5064425;28;20548;-73
2021/07/01 08:30:59;;;;;;;5.87;5.27;;;14.70;99.90;;;;;;5065326;28;20206;-73
2021/07/01 08:33:32;;;;;;;7.40;5.73;;;14.80;99.90;;;;;;5061109;28;20302;-73
2021/07/01 08:36:01;;;;;;;7.00;5.53;;;14.80;99.90;;;;;;5064893;28;20222;-73
2021/07/01 08:38:28;;;;;;;8.47;6.00;;;14.80;99.90;;;;;;5057792;28;20269;-74
2021/07/01 08:41:00;;;;;;;7.47;6.27;;;14.90;99.90;;;;;;5071328;28;20209;-74
2021/07/01 08:43:41;;;;;;;7.90;5.37;;;14.90;99.90;;;;;;5062802;28;20263;-73
2021/07/01 08:46:13;;;;;;;6.03;4.77;;;14.90;99.90;;;;;;5061501;28;20199;-73
2021/07/01 08:48:57;;;;;;;8.10;5.27;;;14.80;99.90;;;;;;5065794;28;20202;-74
2021/07/01 08:51:29;;;;;;;6.73;5.00;;;14.90;99.90;;;;;;5059561;28;20206;-74
2021/07/01 08:54:21;;;;;;;6.27;4.80;;;14.90;99.90;;;;;;5066563;28;20234;-73
2021/07/01 08:56:49;;;;;;;5.53;5.00;;;15.00;99.90;;;;;;5062716;28;20572;-73
2021/07/01 08:59:20;;;;;;;6.80;4.70;;;15.00;99.90;;;;;;5061231;28;20558;-73
2021/07/01 09:01:54;;;;;;;6.73;5.50;;;15.10;99.90;;;;;;5063456;28;20210;-73
2021/07/01 09:04:24;;;;;;;6.87;5.17;;;15.00;99.90;;;;;;5065595;28;20205;-73
2021/07/01 09:06:58;;;;;;;6.30;4.87;;;15.10;99.90;;;;;;5061860;28;20711;-74
2021/07/01 09:09:29;;;;;;;6.43;4.70;;;15.20;99.90;;;;;;5062392;28;20210;-74
2021/07/01 09:11:58;;;;;;;8.00;4.73;;;15.20;99.90;;;;;;5063010;28;20221;-73
2021/07/01 09:14:28;;;;;;;5.63;4.20;;;15.10;99.90;;;;;;5057493;28;20208;-73
2021/07/01 09:16:55;;;;;;;5.77;4.53;;;15.10;99.90;;;;;;5065079;28;20219;-73
2021/07/01 09:19:23;;;;;;;4.73;4.23;;;15.30;99.90;;;;;;5065126;28;20209;-73
2021/07/01 09:21:52;;;;;;;5.67;4.70;;;15.30;99.90;;;;;;5061551;28;20576;-73
2021/07/01 09:24:19;;;;;;;4.70;4.10;;;15.30;99.90;;;;;;5063212;28;20210;-73
2021/07/01 09:26:48;;;;;;;7.70;4.87;;;15.30;99.90;;;;;;5067303;28;20551;-74
2021/07/01 09:29:16;;;;;;;6.23;4.33;;;15.20;99.90;;;;;;5060059;28;20207;-73
2021/07/01 09:31:44;;;;;;;4.63;3.90;;;15.30;99.90;;;;;;5062995;28;20620;-73
2021/07/01 09:34:11;;;;;;;5.60;3.30;;;15.30;99.90;;;;;;5063838;28;20214;-73
2021/07/01 09:36:38;;;;;;;4.20;3.43;;;15.20;99.90;;;;;;5063667;28;20226;-73
2021/07/01 09:39:07;;;;;;;6.20;3.70;;;15.20;99.90;;;;;;5063375;28;20669;-73
2021/07/01 09:41:34;;;;;;;4.03;3.67;;;15.30;99.90;;;;;;5057893;28;20218;-74
2021/07/01 09:44:02;;;;;;;4.10;3.10;;;15.40;99.90;;;;;;5067973;28;20202;-74
2021/07/01 09:46:31;;;;;;;4.30;3.13;;;15.20;99.90;;;;;;5066231;28;20203;-74
2021/07/01 09:49:01;;;;;;;4.33;3.07;;;15.10;99.90;;;;;;5057385;28;20203;-73
2021/07/01 09:51:29;;;;;;;3.40;2.83;;;15.10;99.90;;;;;;5065124;28;20588;-74
2021/07/01 09:53:56;;;;;;;3.20;2.40;;;15.20;99.90;;;;;;5086071;23;20229;-70
2021/07/01 09:56:36;;;;;;;2.63;2.43;;;15.10;99.90;;;;;;5060289;28;20226;-70
2021/07/01 09:59:07;;;;;;;3.90;2.37;;;15.00;99.90;;;;;;5061952;28;20563;-70
2021/07/01 10:01:38;;;;;;;2.17;1.97;;;15.00;99.90;;;;;;5060726;28;20211;-70
2021/07/01 10:04:07;;;;;;;2.63;2.17;;;15.00;99.90;;;;;;5067867;28;20214;-70
2021/07/01 10:06:34;;;;;;;3.83;2.27;;;15.10;99.90;;;;;;5070223;28;20285;-70
2021/07/01 10:09:01;;;;;;;3.33;2.50;;;15.10;99.90;;;;;;5062382;28;20690;-70
2021/07/01 10:11:39;;;;;;;2.43;2.23;;;15.10;99.90;;;;;;5067660;28;20208;-70
2021/07/01 10:14:08;;;;;;;2.70;2.30;;;15.10;99.90;;;;;;5065496;28;20202;-70
2021/07/01 10:16:36;;;;;;;2.43;2.23;;;15.00;99.90;;;;;;5061108;28;20722;-70
2021/07/01 10:19:07;;;;;;;2.73;2.47;;;15.10;99.90;;;;;;5065482;28;20198;-71
2021/07/01 10:21:35;;;;;;;2.67;2.47;;;15.20;99.90;;;;;;5063027;28;20206;-71
2021/07/01 10:24:13;;;;;;;2.90;2.20;;;15.20;99.90;;;;;;5064482;28;20717;-71
2021/07/01 10:26:43;;;;;;;2.10;2.00;;;15.20;99.90;;;;;;5067210;28;20281;-71
2021/07/01 10:29:10;;;;;;;2.00;1.90;;;15.10;99.90;;;;;;5064716;28;20209;-71
2021/07/01 10:31:48;;;;;;;2.60;2.40;;;15.20;99.90;;;;;;5063474;28;20210;-71
2021/07/01 10:34:17;;;;;;;2.07;1.87;;;15.30;99.90;;;;;;5065687;28;20616;-71
2021/07/01 10:36:43;;;;;;;3.67;2.03;;;15.30;99.90;;;;;;5065995;28;20259;-71
2021/07/01 10:39:10;;;;;;;2.30;2.13;;;15.30;99.90;;;;;;5065225;28;20206;-71
2021/07/01 10:41:41;;;;;;;2.43;2.10;;;15.30;99.90;;;;;;5070275;28;20218;-71
2021/07/01 10:44:21;;;;;;;2.87;2.30;;;15.40;99.90;;;;;;5062130;28;20202;-71
2021/07/01 10:46:48;;;;;;;2.80;1.90;;;15.50;99.90;;;;;;5067236;28;20645;-71
2021/07/01 10:49:17;;;;;;;2.00;1.90;;;15.40;99.90;;;;;;5060381;28;20264;-71
2021/07/01 10:51:54;;;;;;;2.40;2.00;;;15.50;99.90;;;;;;5064707;28;20202;-71
2021/07/01 10:54:21;;;;;;;3.13;2.20;;;15.60;99.90;;;;;;5063057;28;20218;-71
2021/07/01 10:56:54;;;;;;;3.53;2.00;;;15.80;99.90;;;;;;5063870;28;20228;-73
2021/07/01 10:59:21;;;;;;;1.97;1.87;;;15.80;99.90;;;;;;5066252;28;20198;-74
2021/07/01 11:01:52;;;;;;;2.40;2.20;;;15.60;99.90;;;;;;5059478;28;20207;-74
2021/07/01 11:04:22;;;;;;;1.60;1.50;;;15.50;99.90;;;;;;5059222;28;20217;-74
2021/07/01 11:06:58;;;;;;;3.90;2.30;;;15.60;99.90;;;;;;5066012;28;20197;-74
2021/07/01 11:09:25;;;;;;;1.77;1.67;;;15.50;99.90;;;;;;5066101;28;20213;-74
2021/07/01 11:12:03;;;;;;;2.30;1.67;;;15.50;99.90;;;;;;5068205;28;20561;-74
2021/07/01 11:14:40;;;;;;;8.00;4.17;;;15.50;99.90;;;;;;5068215;28;20214;-74
2021/07/01 11:17:07;;;;;;;4.53;2.23;;;15.70;99.90;;;;;;5057080;28;20688;-74
2021/07/01 11:19:42;;;;;;;2.00;1.90;;;15.70;99.90;;;;;;5060011;28;20234;-74
2021/07/01 11:22:09;;;;;;;1.67;1.57;;;15.70;99.90;;;;;;5058795;28;20220;-74
2021/07/01 11:24:40;;;;;;;2.27;1.70;;;15.80;99.90;;;;;;5058868;28;20690;-74
2021/07/01 11:27:07;;;;;;;1.93;1.70;;;15.90;99.90;;;;;;5057560;28;20561;-74
2021/07/01 11:29:35;;;;;;;1.40;1.30;;;15.70;99.90;;;;;;5066159;28;20220;-74
2021/07/01 11:32:03;;;;;;;2.87;1.47;;;15.90;99.90;;;;;;5055884;28;20586;-75
2021/07/01 11:34:42;;;;;;;1.83;1.50;;;15.80;99.90;;;;;;5062247;28;20301;-74
2021/07/01 11:37:09;;;;;;;2.03;1.90;;;15.90;99.90;;;;;;5058822;28;20226;-74
2021/07/01 11:39:36;;;;;;;1.47;1.37;;;16.10;99.90;;;;;;5060814;28;20225;-75
2021/07/01 11:42:04;;;;;;;3.27;1.57;;;16.00;99.90;;;;;;5058380;28;20674;-74
2021/07/01 11:44:32;;;;;;;1.10;1.10;;;16.20;99.90;;;;;;5063554;28;20837;-74
2021/07/01 11:47:03;;;;;;;1.30;1.20;;;16.10;99.90;;;;;;5056669;28;20215;-74
2021/07/01 11:49:32;;;;;;;0.90;0.90;;;16.10;99.90;;;;;;5057303;28;20210;-74
2021/07/01 11:52:01;;;;;;;0.90;0.80;;;16.00;99.90;;;;;;5067638;28;20631;-73
2021/07/01 11:54:30;;;;;;;0.77;0.73;;;16.00;99.90;;;;;;5067610;28;20210;-74
2021/07/01 11:56:59;;;;;;;0.87;0.87;;;16.20;99.90;;;;;;5065317;28;20483;-74
2021/07/01 11:59:28;;;;;;;0.97;0.80;;;16.00;99.90;;;;;;5064907;28;20275;-74
2021/07/01 12:01:56;;;;;;;0.87;0.80;;;16.20;99.90;;;;;;5065096;28;20253;-73
2021/07/01 12:04:28;;;;;;;1.00;1.00;;;16.00;99.90;;;;;;5063911;28;20508;-74
2021/07/01 12:07:02;;;;;;;1.10;1.00;;;16.00;99.90;;;;;;5056381;28;20211;-74
2021/07/01 12:09:30;;;;;;;0.90;0.90;;;16.20;99.90;;;;;;5064520;28;20213;-73
2021/07/01 12:12:14;;;;;;;0.70;0.70;;;16.00;99.90;;;;;;5060342;28;20242;-74
2021/07/01 12:14:42;;;;;;;1.20;0.77;;;16.10;99.90;;;;;;5061816;28;20209;-74
2021/07/01 12:17:10;;;;;;;0.80;0.80;;;16.10;99.90;;;;;;5058634;28;20595;-74
2021/07/01 12:20:03;;;;;;;1.10;0.73;;;16.10;99.90;;;;;;5060148;28;20213;-74
2021/07/01 12:22:57;;;;;;;0.90;0.90;;;16.20;99.90;;;;;;5064884;28;20202;-74
2021/07/01 12:25:54;;;;;;;0.83;0.83;;;16.10;99.90;;;;;;5063234;28;20771;-74
2021/07/01 12:28:24;;;;;;;0.80;0.80;;;16.10;99.90;;;;;;4998075;28;20213;-74
2021/07/01 12:31:01;;;;;;;1.77;0.53;;;16.10;99.90;;;;;;5045903;28;20218;-75
2021/07/01 12:33:36;;;;;;;0.77;0.77;;;16.20;99.90;;;;;;5056692;28;20214;-74
2021/07/01 12:36:07;;;;;;;0.80;0.80;;;16.20;99.90;;;;;;5060452;28;20652;-75
2021/07/01 12:38:35;;;;;;;0.90;0.70;;;16.30;99.90;;;;;;5052034;28;20240;-74
2021/07/01 12:41:04;;;;;;;0.80;0.80;;;16.20;99.90;;;;;;5058818;28;20614;-75
2021/07/01 12:43:53;;;;;;;1.77;0.70;;;16.20;99.90;;;;;;5057998;28;20210;-75
2021/07/01 12:46:54;;;;;;;0.73;0.60;;;16.40;99.90;;;;;;5054525;28;20564;-75
2021/07/01 12:49:57;;;;;;;1.03;0.70;;;16.30;99.90;;;;;;5052800;28;20214;-75
2021/07/01 12:52:32;;;;;;;0.97;0.63;;;16.20;99.90;;;;;;5047231;28;20293;-75